CheckWX is a tool to help pilots better visualize weather data.  It is not intended as a substitute for an official pre-flight weather briefing.

21:40:57 UTC

KEAU METAR
Chippewa Valley Regional Airport
Eau Claire, Wisconsin, USA
Current

30 mins ago

KEAU 202111Z 13006KT 3/4SM -SN BR BKN015 OVC023 M03/M05 A2958 RMK AO2 P0000 T10281050
Observed
Feb-20 @ 21:11 UTC
Wind
  • 130° at 6 KTS
Visibility
1,207 meters
Flight Rules
LIFR
Conditions
Light Snow, Mist
Cloud Levels
  • Broken at 1,500' AGL
  • Overcast at 2,300' AGL
Temperature
-3°C / 27°F
Dewpoint
-5°C / 23°F
Humidity
86%
Altimeter
29.58" Hg
Pressure
1001.72 hPa
Current Rain
0.01"
Previous

45 mins ago

KEAU 202056Z 12008KT 1 1/4SM -SN BR BKN015 OVC023 M03/M05 A2959 RMK AO2 SLP032 P0000 60001 T10281050 56027
Observed
Feb-20 @ 20:56 UTC
Wind
  • 120° at 8 KTS
Visibility
2,012 meters
Flight Rules
IFR
Conditions
Light Snow, Mist
Cloud Levels
  • Broken at 1,500' AGL
  • Overcast at 2,300' AGL
Temperature
-3°C / 27°F
Dewpoint
-5°C / 23°F
Humidity
86%
Altimeter
29.59" Hg
Pressure
1003.2 hPa
Current Rain
0.01"
Previous

52 mins ago

KEAU 202049Z 12007G16KT 1 3/4SM -SN BKN015 OVC023 M03/M06 A2959 RMK AO2 P0000 T10281056
Observed
Feb-20 @ 20:49 UTC
Wind
  • 120° at 7 KTS
  • Gusting to 16 KTS
Visibility
2,816 meters
Flight Rules
IFR
Conditions
Light Snow
Cloud Levels
  • Broken at 1,500' AGL
  • Overcast at 2,300' AGL
Temperature
-3°C / 27°F
Dewpoint
-6°C / 21°F
Humidity
80%
Altimeter
29.59" Hg
Pressure
1002.02 hPa
Current Rain
0.01"